OIHH  Hamadan  Airport

Hamadan, Iran

Add Bookmark
Status IATA
Operational HDM
Latitude Longitude
34° 52' 9" N 48° 33' 9" E
34.869202 48.552502
Local (DST + 5) UTC (GMT + 4)
Mar 5, 2015 11:42 Mar 5, 2015 20:12
Sunrise-Sunset Local UTC
Begin Civil Twilight 06:13 02:43
Sunrise 06:38 03:08
Sunset 06:15 14:45
End Civil Twilight 06:41 15:11

Current Weather

METAR Observed VFR
OIHH 051500Z 26010KT 9999 FEW040 07/M09 Q1015 Thu, Mar 5, 2015 @ 15:00 UTC
(5 Hours, 12 Minutes ago)
Visual Flight Rules
Wind Visibility Clouds Conditions
260° at 10 knots (19 kph) 10 km or more
  • Few at 4,000' AGL
  • No significant weather
Temperatures Readings Precipitation
Current Temp 7°C (45°F)
Dewpoint -9°C (16°F)
Humidity 31%
Altimeter 29.97"Hg
Sea Level Pressure 1015mb
Field Elevation 5764.44'
None Recorded

24 Hour Weather History

Loading
-

24 Hour Weather Graphs

Loading
-

CheckWX.com is intended as a tool to help pilots better visualize weather data. It is not intended as a substitute for an official weather briefing obtained from a Flight Service Station. CheckWX.com does not meet the FAA requirements for an official pre-flight weather briefing. Therefore, it's important that pilots still call and obtain an official FSS pre-flight weather briefing.